Time;durP1;ratioP1;P1;durP2;ratioP2;P2;SDS_P1;SDS_P2;PMS_P1;PMS_P2;Temp;Humidity;BMP_temperature;BMP_pressure;BME280_temperature;BME280_humidity;BME280_pressure;Samples;Min_cycle;Max_cycle;Signal;HPM_P1;HPM_P2
2022/07/22 00:00:42;;;;;;;7.80;5.47;;;;;;;16.76;80.96;97738.91;4987494;28;20042;-62
2022/07/22 00:03:09;;;;;;;7.30;5.55;;;;;;;16.72;80.89;97731.56;4986942;28;20085;-62
2022/07/22 00:05:35;;;;;;;8.57;5.70;;;;;;;16.63;81.52;97731.34;4986802;28;20579;-62
2022/07/22 00:08:02;;;;;;;8.52;5.72;;;;;;;16.60;81.89;97737.38;4986851;28;20054;-62
2022/07/22 00:10:29;;;;;;;9.43;6.25;;;;;;;16.51;82.25;97732.50;4986352;28;20494;-62
2022/07/22 00:12:55;;;;;;;8.80;5.20;;;;;;;16.48;82.29;97738.53;4987352;28;20050;-62
2022/07/22 00:15:22;;;;;;;7.85;5.60;;;;;;;16.56;82.01;97733.56;4986129;28;20081;-62
2022/07/22 00:17:48;;;;;;;8.98;6.28;;;;;;;16.57;81.92;97730.56;4985114;28;20046;-62
2022/07/22 00:20:15;;;;;;;8.25;5.80;;;;;;;16.60;81.48;97732.75;4986568;28;20453;-61
2022/07/22 00:22:41;;;;;;;7.75;5.38;;;;;;;16.61;81.62;97728.91;4985790;28;20062;-62
2022/07/22 00:25:08;;;;;;;9.55;5.22;;;;;;;16.57;81.85;97719.63;4986875;28;20039;-62
2022/07/22 00:27:35;;;;;;;7.13;5.55;;;;;;;16.67;81.43;97724.22;4985836;28;20564;-62
2022/07/22 00:30:03;;;;;;;9.55;5.70;;;;;;;16.69;81.39;97722.00;4985410;28;20054;-62
2022/07/22 00:32:29;;;;;;;7.90;5.55;;;;;;;16.63;81.44;97714.94;4971812;28;20438;-62
2022/07/22 00:34:56;;;;;;;9.20;5.80;;;;;;;16.63;81.49;97714.94;4986171;28;20049;-62
2022/07/22 00:37:23;;;;;;;7.80;5.97;;;;;;;16.50;82.05;97719.13;4985774;28;20522;-62
2022/07/22 00:39:49;;;;;;;7.90;6.05;;;;;;;16.50;82.26;97721.84;4984073;28;20046;-62
2022/07/22 00:42:16;;;;;;;9.88;5.80;;;;;;;16.47;82.37;97717.75;4984239;28;20096;-62
2022/07/22 00:44:43;;;;;;;8.45;5.88;;;;;;;16.43;82.64;97722.16;4986208;28;20461;-62
2022/07/22 00:47:11;;;;;;;9.23;6.32;;;;;;;16.45;82.47;97714.50;4986081;28;20505;-62
2022/07/22 00:49:38;;;;;;;11.25;6.28;;;;;;;16.32;83.32;97706.91;4985908;28;20046;-62
2022/07/22 00:52:05;;;;;;;7.50;5.78;;;;;;;16.25;83.27;97718.97;4986125;28;20445;-62
2022/07/22 00:54:32;;;;;;;8.15;5.70;;;;;;;16.25;83.37;97713.50;4984289;28;20050;-62
2022/07/22 00:56:59;;;;;;;7.40;5.78;;;;;;;16.11;84.17;97712.50;4986113;28;20034;-62
2022/07/22 00:59:26;;;;;;;8.60;5.90;;;;;;;16.17;83.92;97710.53;4986117;28;20113;-62
2022/07/22 01:01:52;;;;;;;9.57;6.10;;;;;;;16.25;83.73;97708.03;4986129;28;20469;-62
2022/07/22 01:04:19;;;;;;;7.57;6.13;;;;;;;16.27;83.47;97705.03;4986197;28;20056;-62
2022/07/22 01:06:46;;;;;;;8.45;5.72;;;;;;;16.24;83.58;97708.31;4985079;28;20038;-62
2022/07/22 01:09:13;;;;;;;8.27;6.18;;;;;;;16.16;83.74;97704.28;4986010;28;20046;-62
2022/07/22 01:11:40;;;;;;;9.60;6.40;;;;;;;16.25;83.63;97702.59;4985749;28;20569;-62
2022/07/22 01:14:08;;;;;;;7.95;6.32;;;;;;;16.37;83.00;97698.72;4985171;28;20534;-62
2022/07/22 01:16:35;;;;;;;10.52;6.43;;;;;;;16.38;82.93;97703.91;4966922;28;20361;-62
2022/07/22 01:19:03;;;;;;;11.95;6.15;;;;;;;16.33;82.91;97698.44;4984756;28;20056;-62
2022/07/22 01:21:29;;;;;;;10.57;6.00;;;;;;;16.33;82.99;97698.44;4985699;28;20413;-62
2022/07/22 01:23:57;;;;;;;8.80;6.65;;;;;;;16.03;84.40;97704.88;4985621;28;20093;-62
2022/07/22 01:26:24;;;;;;;10.70;6.63;;;;;;;15.98;85.03;97703.81;4983181;28;20046;-62
2022/07/22 01:28:51;;;;;;;11.40;6.90;;;;;;;15.95;85.16;97703.53;4987990;28;20728;-62
2022/07/22 01:31:17;;;;;;;10.50;6.40;;;;;;;15.88;85.32;97705.72;4988389;28;20054;-61
2022/07/22 01:33:44;;;;;;;8.95;6.32;;;;;;;15.82;85.73;97711.19;4987956;28;20050;-62
2022/07/22 01:36:11;;;;;;;9.25;7.47;;;;;;;15.77;86.20;97707.69;4988748;28;20505;-62
2022/07/22 01:38:38;;;;;;;8.23;6.00;;;;;;;15.67;86.44;97706.59;4987628;28;20092;-61
2022/07/22 01:41:05;;;;;;;9.40;6.78;;;;;;;15.58;87.09;97706.34;4988028;28;20043;-62
2022/07/22 01:43:32;;;;;;;11.40;6.45;;;;;;;15.60;87.13;97711.53;4986814;28;20318;-62
2022/07/22 01:45:58;;;;;;;9.10;6.38;;;;;;;15.65;86.98;97706.06;4986518;28;20038;-62
2022/07/22 01:48:25;;;;;;;8.73;6.65;;;;;;;15.65;86.20;97697.88;4987722;28;20513;-62
2022/07/22 01:50:52;;;;;;;8.40;6.15;;;;;;;15.49;87.26;97702.56;4977089;28;20042;-62
2022/07/22 01:53:19;;;;;;;8.70;6.35;;;;;;;15.49;87.28;97705.28;4968735;28;20042;-62
2022/07/22 01:55:47;;;;;;;9.18;6.40;;;;;;;15.50;87.58;97704.19;4984828;28;20057;-62
2022/07/22 01:58:15;;;;;;;8.57;6.53;;;;;;;15.36;88.15;97705.84;4985101;28;20042;-62
2022/07/22 02:00:42;;;;;;;9.07;6.82;;;;;;;15.30;88.46;97703.13;4986382;28;20046;-62
2022/07/22 02:03:10;;;;;;;10.90;6.45;;;;;;;15.33;88.40;97705.31;4986750;28;20409;-62
2022/07/22 02:05:38;;;;;;;9.93;6.93;;;;;;;15.18;88.68;97700.69;4988631;28;20121;-62
2022/07/22 02:08:15;;;;;;;12.20;6.93;;;;;;;15.12;90.03;97707.25;4987669;28;20058;-61
2022/07/22 02:11:11;;;;;;;9.50;6.63;;;;;;;15.15;89.76;97705.88;4985019;28;20050;-61
2022/07/22 02:13:49;;;;;;;9.57;6.88;;;;;;;15.25;88.82;97705.84;4986952;28;20050;-62
2022/07/22 02:16:16;;;;;;;9.10;6.70;;;;;;;15.16;88.93;97710.22;4980703;28;20030;-62
2022/07/22 02:18:47;;;;;;;11.27;6.93;;;;;;;15.05;89.58;97698.50;4970025;28;20054;-61
2022/07/22 02:21:14;;;;;;;11.35;6.93;;;;;;;15.01;90.18;97705.59;4978772;28;20057;-62
2022/07/22 02:23:41;;;;;;;9.18;6.45;;;;;;;14.98;89.85;97700.69;4987114;28;20058;-62
2022/07/22 02:26:08;;;;;;;9.07;6.68;;;;;;;14.95;90.10;97704.78;4986256;28;20525;-62
2022/07/22 02:28:35;;;;;;;11.07;6.97;;;;;;;14.99;89.96;97697.69;4986160;28;20054;-62
2022/07/22 02:31:02;;;;;;;8.68;6.85;;;;;;;15.10;89.08;97693.06;4985841;28;20059;-62
2022/07/22 02:33:29;;;;;;;9.75;7.10;;;;;;;14.69;90.59;97697.38;4988778;28;20039;-62
2022/07/22 02:35:57;;;;;;;11.32;7.15;;;;;;;14.59;92.14;97697.34;4986843;28;20046;-62
2022/07/22 02:38:25;;;;;;;10.50;7.32;;;;;;;14.64;92.04;97696.56;4987311;28;20061;-62
2022/07/22 02:40:53;;;;;;;10.15;7.35;;;;;;;14.75;91.80;97690.03;4985129;28;20497;-62
2022/07/22 02:43:20;;;;;;;10.65;7.40;;;;;;;14.69;91.22;97688.38;4991908;28;20034;-62
2022/07/22 02:45:47;;;;;;;10.35;7.50;;;;;;;14.47;92.28;97694.06;4990132;28;20054;-61
2022/07/22 02:48:14;;;;;;;11.35;7.55;;;;;;;14.48;93.06;97691.06;4985179;28;20313;-62
2022/07/22 02:50:48;;;;;;;9.93;8.40;;;;;;;14.52;93.48;97694.09;4982585;28;20509;-62
2022/07/22 02:53:20;;;;;;;11.68;7.60;;;;;;;14.57;92.60;97694.09;4986362;28;20038;-62
2022/07/22 02:55:47;;;;;;;9.60;7.10;;;;;;;14.59;92.65;97697.34;4986824;28;20076;-62
2022/07/22 02:58:13;;;;;;;9.93;7.47;;;;;;;14.63;92.64;97694.94;4987885;28;20422;-62
2022/07/22 03:00:42;;;;;;;12.52;7.13;;;;;;;14.49;92.46;97700.88;4986881;28;20046;-62
2022/07/22 03:03:08;;;;;;;11.02;6.93;;;;;;;14.42;92.94;97692.97;4986601;28;20096;-62
2022/07/22 03:05:35;;;;;;;9.48;7.22;;;;;;;14.51;93.38;97696.00;4987003;28;20449;-62
2022/07/22 03:08:25;;;;;;;10.05;7.15;;;;;;;14.63;92.91;97693.00;4980859;28;20046;-62
2022/07/22 03:10:53;;;;;;;10.10;7.72;;;;;;;14.68;92.17;97698.44;4985594;28;20436;-62
2022/07/22 03:13:20;;;;;;;9.68;7.85;;;;;;;14.50;92.47;97707.97;4986353;28;20034;-62
2022/07/22 03:15:47;;;;;;;10.48;7.50;;;;;;;14.19;94.39;97705.16;4986352;28;20221;-62
2022/07/22 03:18:13;;;;;;;11.50;7.75;;;;;;;14.25;95.35;97700.56;4987110;28;20046;-62
2022/07/22 03:20:41;;;;;;;12.32;7.82;;;;;;;14.40;94.73;97697.88;4986342;28;20158;-62
2022/07/22 03:23:07;;;;;;;13.73;8.02;;;;;;;14.38;93.63;97701.97;4988027;28;20044;-62
2022/07/22 03:25:34;;;;;;;10.23;8.23;;;;;;;14.23;94.60;97698.09;4986189;28;20437;-62
2022/07/22 03:28:01;;;;;;;11.10;8.45;;;;;;;14.33;94.64;97699.22;4986100;28;20161;-62
2022/07/22 03:30:28;;;;;;;15.05;9.02;;;;;;;14.33;94.56;97701.94;4984979;28;20529;-62
2022/07/22 03:32:54;;;;;;;14.20;8.52;;;;;;;14.33;94.13;97710.13;4985939;28;20050;-62
2022/07/22 03:35:22;;;;;;;11.82;8.48;;;;;;;14.33;94.80;97710.13;4985601;28;20057;-62
2022/07/22 03:37:49;;;;;;;10.85;8.85;;;;;;;14.34;94.88;97707.09;4983303;28;20609;-62
2022/07/22 03:40:16;;;;;;;10.95;8.57;;;;;;;14.40;94.48;97703.31;4974960;28;20042;-62
2022/07/22 03:42:44;;;;;;;12.23;9.20;;;;;;;14.37;94.16;97694.88;4978748;28;20057;-62
2022/07/22 03:45:13;;;;;;;11.93;8.40;;;;;;;14.30;95.36;97695.13;4983106;28;20694;-62
2022/07/22 03:47:41;;;;;;;16.00;8.77;;;;;;;14.40;94.67;97711.50;4982964;28;20082;-62
2022/07/22 03:50:08;;;;;;;12.55;8.98;;;;;;;14.48;93.78;97706.63;4982287;28;20067;-62
2022/07/22 03:52:35;;;;;;;11.65;8.52;;;;;;;14.50;94.41;97701.69;4977141;28;20537;-62
2022/07/22 03:55:06;;;;;;;11.70;8.88;;;;;;;14.51;93.63;97695.16;4979693;28;20057;-62
2022/07/22 03:57:33;;;;;;;11.38;8.20;;;;;;;14.55;93.62;97698.97;4984299;28;20042;-61
2022/07/22 04:00:08;;;;;;;11.40;8.00;;;;;;;14.25;93.99;97700.56;4982660;28;20050;-62
2022/07/22 04:02:42;;;;;;;11.52;7.78;;;;;;;14.10;94.79;97699.44;4984557;28;20161;-61
2022/07/22 04:05:15;;;;;;;11.38;8.40;;;;;;;14.14;96.06;97703.25;4983111;28;20070;-62
2022/07/22 04:07:42;;;;;;;12.68;8.82;;;;;;;14.24;96.05;97701.66;4982196;28;20054;-62
2022/07/22 04:10:09;;;;;;;10.65;8.65;;;;;;;14.34;95.08;97703.59;4982747;28;20046;-61
2022/07/22 04:12:40;;;;;;;10.82;8.18;;;;;;;14.27;94.90;97704.63;4981073;28;20303;-61
2022/07/22 04:15:24;;;;;;;15.60;8.98;;;;;;;14.38;95.34;97702.75;4983245;28;20077;-62
2022/07/22 04:17:51;;;;;;;13.93;9.13;;;;;;;14.54;94.21;97706.34;4983102;28;20050;-62
2022/07/22 04:20:18;;;;;;;11.98;8.80;;;;;;;14.65;93.89;97709.09;4986385;28;20045;-62
2022/07/22 04:23:07;;;;;;;12.77;8.57;;;;;;;14.87;92.80;97702.59;4997686;28;20181;-62
2022/07/22 04:25:34;;;;;;;12.77;9.20;;;;;;;14.91;92.36;97698.22;4982709;28;20054;-62
2022/07/22 04:28:01;;;;;;;14.23;9.50;;;;;;;14.92;92.32;97700.69;4978597;28;20137;-62
2022/07/22 04:30:28;;;;;;;12.68;8.73;;;;;;;14.90;92.57;97688.44;4982540;28;20050;-62
2022/07/22 04:32:55;;;;;;;15.65;10.20;;;;;;;14.98;92.50;97692.50;4975916;28;20142;-62
2022/07/22 04:35:22;;;;;;;11.23;8.35;;;;;;;14.95;92.13;97686.53;4982754;28;20065;-62
2022/07/22 04:38:03;;;;;;;14.23;9.35;;;;;;;14.69;94.06;97693.81;4982278;28;20595;-62
2022/07/22 04:40:30;;;;;;;11.23;8.60;;;;;;;14.77;94.28;97689.78;4983782;28;20412;-62
2022/07/22 04:42:57;;;;;;;13.30;9.82;;;;;;;14.86;94.30;97690.06;4982879;28;20039;-56
2022/07/22 04:45:23;;;;;;;12.32;8.88;;;;;;;14.98;93.68;97695.22;4981758;28;20057;-57
2022/07/22 04:47:50;;;;;;;17.98;9.90;;;;;;;15.00;93.69;97685.69;4980659;28;20080;-57
2022/07/22 04:50:16;;;;;;;12.32;8.95;;;;;;;15.08;93.48;97687.06;4977424;28;20053;-58
2022/07/22 04:52:43;;;;;;;11.50;9.07;;;;;;;15.22;93.31;97684.56;4972543;28;20061;-58
2022/07/22 04:55:15;;;;;;;12.63;9.30;;;;;;;15.21;93.21;97686.50;4981785;28;20065;-57
2022/07/22 04:57:41;;;;;;;13.45;9.93;;;;;;;15.22;93.56;97692.75;4982297;28;20047;-58
2022/07/22 05:00:08;;;;;;;14.00;9.93;;;;;;;15.37;92.81;97693.84;4982948;28;20133;-54
2022/07/22 05:02:45;;;;;;;14.05;9.45;;;;;;;15.50;92.48;97685.09;4982572;28;20038;-56
2022/07/22 05:05:11;;;;;;;13.88;9.70;;;;;;;15.56;92.81;97688.63;4986265;28;20318;-59
2022/07/22 05:07:38;;;;;;;12.43;9.35;;;;;;;15.70;92.46;97684.19;4986571;28;20039;-62
2022/07/22 05:10:05;;;;;;;12.43;9.35;;;;;;;15.84;91.65;97689.06;4985054;28;20058;-63
2022/07/22 05:12:32;;;;;;;12.02;9.57;;;;;;;15.98;90.80;97681.13;4985410;28;20046;-63
2022/07/22 05:14:59;;;;;;;12.35;9.65;;;;;;;16.09;90.64;97679.16;4988521;28;20046;-62
2022/07/22 05:17:27;;;;;;;14.10;9.02;;;;;;;16.24;90.35;97684.56;4985026;28;20342;-62
2022/07/22 05:20:08;;;;;;;15.77;9.50;;;;;;;16.30;90.89;97687.25;4984984;28;20328;-62
2022/07/22 05:22:36;;;;;;;12.20;9.55;;;;;;;16.36;90.88;97686.13;4985949;28;20510;-62
2022/07/22 05:25:07;;;;;;;12.48;8.30;;;;;;;16.47;90.96;97676.78;4986551;28;20043;-62
2022/07/22 05:27:34;;;;;;;14.57;8.95;;;;;;;16.63;90.78;97693.06;4985472;28;20074;-62
2022/07/22 05:30:01;;;;;;;12.40;9.70;;;;;;;16.84;89.54;97682.00;4986502;28;20057;-62
2022/07/22 05:32:30;;;;;;;12.27;8.80;;;;;;;17.10;88.06;97685.34;4986100;28;20042;-62
2022/07/22 05:35:00;;;;;;;15.45;10.55;;;;;;;17.41;86.44;97687.00;4986173;28;20454;-62
2022/07/22 05:37:26;;;;;;;12.30;8.88;;;;;;;17.61;85.41;97682.41;4985989;28;20038;-62
2022/07/22 05:39:53;;;;;;;14.27;9.25;;;;;;;17.71;84.10;97685.03;4985678;28;20082;-62
2022/07/22 05:42:19;;;;;;;11.82;8.57;;;;;;;17.89;84.11;97685.38;4986900;28;20050;-62
2022/07/22 05:44:46;;;;;;;12.00;8.63;;;;;;;18.00;83.44;97686.88;4997523;28;20689;-62
2022/07/22 05:47:13;;;;;;;11.85;8.75;;;;;;;18.12;82.74;97680.19;4985938;28;20348;-62
2022/07/22 05:49:40;;;;;;;13.43;9.40;;;;;;;18.24;81.57;97685.25;4984685;28;20042;-62
2022/07/22 05:52:11;;;;;;;11.38;8.57;;;;;;;18.31;80.64;97686.50;5002707;28;20037;-62
2022/07/22 05:54:39;;;;;;;13.73;8.50;;;;;;;18.35;81.07;97685.91;4986263;28;20089;-62
2022/07/22 05:57:09;;;;;;;12.38;9.05;;;;;;;18.36;80.62;97691.09;4986893;28;20121;-62
2022/07/22 05:59:37;;;;;;;12.37;9.33;;;;;;;18.42;80.72;97686.34;4986044;28;20047;-62
2022/07/22 06:02:03;;;;;;;13.00;8.48;;;;;;;18.45;79.95;97681.09;4985693;28;20065;-62
2022/07/22 06:04:38;;;;;;;13.43;8.32;;;;;;;18.52;80.53;97691.69;4985686;28;20472;-62
2022/07/22 06:07:06;;;;;;;10.23;8.10;;;;;;;18.56;79.60;97687.25;4985235;28;20057;-62
2022/07/22 06:09:33;;;;;;;12.80;8.10;;;;;;;18.58;79.51;97689.69;4985619;28;20537;-62
2022/07/22 06:11:59;;;;;;;10.25;7.97;;;;;;;18.70;79.25;97689.25;4986381;28;20052;-62
2022/07/22 06:14:26;;;;;;;10.95;8.35;;;;;;;18.70;79.18;97687.31;4986136;28;20416;-62
2022/07/22 06:16:52;;;;;;;11.70;8.52;;;;;;;18.74;79.04;97681.22;4985835;28;20049;-62
2022/07/22 06:19:19;;;;;;;13.73;7.88;;;;;;;18.82;79.40;97677.81;4985873;28;20042;-62
2022/07/22 06:21:45;;;;;;;10.65;7.85;;;;;;;18.87;78.00;97683.19;4986639;28;20046;-62
2022/07/22 06:24:13;;;;;;;13.98;8.07;;;;;;;18.92;77.37;97685.06;4985309;28;20076;-62
2022/07/22 06:26:40;;;;;;;12.23;7.95;;;;;;;18.96;78.50;97683.34;4987974;28;20038;-62
2022/07/22 06:29:06;;;;;;;11.48;8.70;;;;;;;18.95;77.00;97684.47;4987083;28;20532;-62
2022/07/22 06:31:33;;;;;;;13.35;7.22;;;;;;;18.99;77.02;97691.00;4987589;28;20043;-62
2022/07/22 06:34:00;;;;;;;13.95;8.82;;;;;;;18.95;77.83;97692.69;4988352;28;20042;-62
2022/07/22 06:36:37;;;;;;;12.10;8.68;;;;;;;19.08;76.49;97694.69;4987233;28;20074;-62
2022/07/22 06:39:04;;;;;;;10.63;7.95;;;;;;;19.17;77.02;97686.59;4985519;28;20046;-62
2022/07/22 06:41:50;;;;;;;11.63;8.02;;;;;;;19.22;76.31;97685.69;4982310;28;20140;-62
2022/07/22 06:44:40;;;;;;;9.75;7.65;;;;;;;19.22;77.45;97688.44;4970806;28;20090;-62
2022/07/22 06:47:18;;;;;;;9.82;7.90;;;;;;;19.32;76.35;97688.25;4984245;28;20128;-62
2022/07/22 06:49:44;;;;;;;11.63;7.88;;;;;;;19.39;76.17;97687.03;4985069;28;20046;-62
2022/07/22 06:52:13;;;;;;;12.18;7.88;;;;;;;19.47;75.09;97680.84;4984290;28;20043;-62
2022/07/22 06:54:39;;;;;;;12.07;8.52;;;;;;;19.55;74.52;97677.41;4986202;28;20046;-62
2022/07/22 06:57:06;;;;;;;10.25;7.45;;;;;;;19.50;74.44;97683.00;4976895;28;20207;-62
2022/07/22 06:59:34;;;;;;;12.73;8.88;;;;;;;19.54;74.78;97684.03;4983285;28;20101;-62
2022/07/22 07:02:06;;;;;;;10.43;7.93;;;;;;;19.62;73.92;97682.50;4986800;28;20078;-62
2022/07/22 07:04:36;;;;;;;9.02;7.32;;;;;;;19.65;73.97;97678.31;4985843;28;20042;-62
2022/07/22 07:07:03;;;;;;;9.57;7.88;;;;;;;19.65;74.42;97676.41;4986512;28;20057;-62
2022/07/22 07:09:30;;;;;;;10.35;7.57;;;;;;;19.79;74.15;97676.38;4987838;28;20089;-62
2022/07/22 07:12:18;;;;;;;11.10;7.68;;;;;;;19.97;73.89;97669.16;4986455;28;20046;-62
2022/07/22 07:15:17;;;;;;;12.30;7.57;;;;;;;20.08;72.26;97667.03;4986774;28;20121;-62
2022/07/22 07:17:56;;;;;;;13.63;7.95;;;;;;;20.19;71.95;97672.34;4986276;28;20129;-62
2022/07/22 07:20:24;;;;;;;10.10;7.75;;;;;;;20.27;71.24;97658.66;4983958;28;20049;-62
2022/07/22 07:22:51;;;;;;;10.18;7.45;;;;;;;20.29;70.63;97650.09;4983527;28;20207;-63
2022/07/22 07:25:17;;;;;;;11.93;7.78;;;;;;;20.33;70.76;97651.13;4983728;28;20138;-62
2022/07/22 07:27:51;;;;;;;11.52;8.10;;;;;;;20.33;71.15;97651.13;4983817;28;20054;-62
2022/07/22 07:30:25;;;;;;;10.90;7.68;;;;;;;20.44;70.45;97656.38;4984198;28;20113;-62
2022/07/22 07:32:52;;;;;;;13.48;7.90;;;;;;;20.56;69.73;97647.59;4985296;28;20403;-62
2022/07/22 07:35:19;;;;;;;10.23;7.93;;;;;;;20.74;69.09;97651.25;4983656;28;20054;-62
2022/07/22 07:37:46;;;;;;;11.95;8.18;;;;;;;20.75;68.73;97650.97;4981569;28;20038;-62
2022/07/22 07:40:13;;;;;;;11.00;7.47;;;;;;;20.77;68.58;97645.16;4983479;28;20149;-62
2022/07/22 07:42:40;;;;;;;9.98;7.68;;;;;;;20.84;69.61;97647.47;4984029;28;20042;-62
2022/07/22 07:45:14;;;;;;;11.18;7.80;;;;;;;21.03;68.27;97639.84;4983508;28;20058;-62
2022/07/22 07:47:41;;;;;;;11.23;7.78;;;;;;;21.13;68.44;97638.78;4983495;28;20050;-62
2022/07/22 07:50:08;;;;;;;11.38;7.60;;;;;;;21.33;68.06;97644.06;4984376;28;20141;-63
2022/07/22 07:52:43;;;;;;;9.98;7.88;;;;;;;21.16;67.97;97643.63;4984823;28;20057;-62
2022/07/22 07:55:19;;;;;;;10.45;8.02;;;;;;;21.20;67.81;97643.00;4983861;28;20053;-62
2022/07/22 07:57:48;;;;;;;11.60;8.05;;;;;;;21.28;67.56;97640.31;4982740;28;20096;-62
2022/07/22 08:00:21;;;;;;;12.45;8.93;;;;;;;21.41;67.77;97646.06;4982994;28;20330;-63
2022/07/22 08:02:49;;;;;;;15.93;8.95;;;;;;;21.38;66.97;97638.41;4983924;28;20149;-63
2022/07/22 08:05:18;;;;;;;11.95;8.25;;;;;;;21.59;66.80;97640.63;4983117;28;20070;-62
2022/07/22 08:07:45;;;;;;;10.98;7.85;;;;;;;21.83;65.90;97640.22;4983149;28;20137;-63
2022/07/22 08:10:14;;;;;;;14.13;7.82;;;;;;;21.93;64.77;97639.91;4982750;28;20054;-63
2022/07/22 08:13:00;;;;;;;11.45;8.25;;;;;;;21.93;63.69;97636.38;4983554;28;20082;-62
2022/07/22 08:15:46;;;;;;;14.10;8.70;;;;;;;22.02;63.86;97639.94;4984852;28;20061;-62
2022/07/22 08:18:32;;;;;;;13.57;8.55;;;;;;;22.02;64.12;97636.38;4983946;28;20123;-63
2022/07/22 08:20:59;;;;;;;12.23;7.38;;;;;;;21.93;63.80;97634.41;4976391;28;20430;-63
2022/07/22 08:23:41;;;;;;;10.68;8.00;;;;;;;;;;4965754;28;20155;-63
2022/07/22 08:26:11;;;;;;;11.18;7.63;;;;;;;22.09;63.75;97625.69;4965963;28;20434;-63
2022/07/22 08:28:37;;;;;;;11.63;8.35;;;;;;;22.14;63.92;97632.97;4965648;28;20058;-63
2022/07/22 08:31:04;;;;;;;10.43;8.07;;;;;;;22.20;62.83;97626.19;4967822;28;20053;-63
2022/07/22 08:33:32;;;;;;;10.13;7.18;;;;;;;22.37;62.32;97621.81;4979355;28;20042;-63
2022/07/22 08:35:59;;;;;;;11.55;7.55;;;;;;;22.49;62.74;97627.50;4985623;28;20042;-63
2022/07/22 08:38:25;;;;;;;11.25;7.70;;;;;;;22.52;61.53;97617.75;4987504;28;20054;-63
2022/07/22 08:40:56;;;;;;;12.07;8.32;;;;;;;22.63;61.58;97619.09;4989035;28;20050;-63
2022/07/22 08:43:33;;;;;;;11.63;7.93;;;;;;;22.65;61.22;97616.81;4989437;28;20070;-62
2022/07/22 08:46:01;;;;;;;10.77;8.13;;;;;;;22.80;61.71;97611.91;4989218;28;20053;-62
2022/07/22 08:48:35;;;;;;;10.95;8.13;;;;;;;22.78;60.79;97614.19;4989278;28;20057;-62
2022/07/22 08:51:34;;;;;;;10.02;7.30;;;;;;;23.17;59.37;97604.03;4967796;28;20480;-62
2022/07/22 08:54:17;;;;;;;12.02;7.45;;;;;;;23.14;58.97;97599.16;4989002;28;20418;-63
2022/07/22 08:56:51;;;;;;;12.05;7.57;;;;;;;23.32;59.80;97605.44;4989593;28;20054;-63
2022/07/22 08:59:19;;;;;;;10.35;7.22;;;;;;;23.37;58.93;97605.28;4988959;28;20134;-63
2022/07/22 09:02:06;;;;;;;13.25;8.32;;;;;;;23.52;58.73;97603.13;4990723;28;20437;-63
2022/07/22 09:04:50;;;;;;;12.18;7.63;;;;;;;23.42;58.29;97604.31;4969438;28;20049;-63
2022/07/22 09:07:23;;;;;;;;;;;;;;;23.57;58.24;97610.41;4971216;28;20417;-63
2022/07/22 09:09:50;;;;;;;13.10;7.25;;;;;;;23.67;57.87;97609.22;5001892;28;19964;-63
2022/07/22 09:12:57;;;;;;;10.77;7.80;;;;;;;23.74;57.62;97598.47;4989982;28;20104;-62
2022/07/22 09:15:48;;;;;;;11.38;7.88;;;;;;;23.86;57.80;97603.25;4988988;28;20393;-62
2022/07/22 09:18:45;;;;;;;11.90;7.60;;;;;;;23.93;56.68;97599.97;4984680;28;20058;-63
2022/07/22 09:21:37;;;;;;;11.43;6.97;;;;;;;23.97;56.03;97598.16;4982256;28;20101;-63
2022/07/22 09:24:35;;;;;;;10.38;6.93;;;;;;;24.06;55.62;97598.09;4985468;28;20057;-62
2022/07/22 09:27:27;;;;;;;10.57;6.68;;;;;;;24.10;55.69;97596.28;4987693;28;20585;-63
2022/07/22 09:30:25;;;;;;;9.52;7.57;;;;;;;24.31;54.56;97587.19;4985842;28;20532;-62
2022/07/22 09:33:02;;;;;;;10.32;7.35;;;;;;;24.39;54.43;97589.91;4985649;28;20049;-62
2022/07/22 09:35:38;;;;;;;8.38;6.22;;;;;;;24.40;53.72;97593.47;4977293;28;20544;-63
2022/07/22 09:38:07;;;;;;;11.75;7.13;;;;;;;24.48;53.35;97595.38;4986443;28;20141;-63
2022/07/22 09:40:36;;;;;;;9.85;6.20;;;;;;;24.57;53.18;97586.97;4985927;28;20085;-63
2022/07/22 09:43:06;;;;;;;8.48;6.43;;;;;;;24.81;52.75;97579.91;4985603;28;20046;-67
2022/07/22 09:45:34;;;;;;;8.05;6.85;;;;;;;24.92;52.58;97583.88;4985816;28;20081;-67
2022/07/22 09:48:02;;;;;;;8.07;6.35;;;;;;;24.91;52.77;97578.72;4985525;28;20058;-67
2022/07/22 09:50:33;;;;;;;10.05;6.97;;;;;;;24.87;52.55;97584.09;4987115;28;20476;-66
2022/07/22 09:53:24;;;;;;;9.05;6.82;;;;;;;25.07;52.59;97574.09;4965291;28;20057;-66
2022/07/22 09:56:05;;;;;;;9.40;7.05;;;;;;;25.14;51.36;97572.75;4985986;28;20474;-66
2022/07/22 09:58:33;;;;;;;9.15;6.43;;;;;;;25.22;51.55;97579.31;4985450;28;20046;-67
2022/07/22 10:01:05;;;;;;;9.90;6.63;;;;;;;25.20;51.45;97558.31;4985852;28;20046;-66
2022/07/22 10:03:36;;;;;;;9.82;6.90;;;;;;;25.30;51.41;97556.25;4986062;28;20522;-67
2022/07/22 10:06:05;;;;;;;10.60;6.40;;;;;;;25.37;51.32;97547.34;4984338;28;20050;-67
2022/07/22 10:08:33;;;;;;;8.98;6.20;;;;;;;25.50;50.57;97553.72;4984896;28;20125;-66
2022/07/22 10:11:03;;;;;;;12.07;6.93;;;;;;;25.51;50.87;97542.28;4991213;28;20051;-67
2022/07/22 10:13:31;;;;;;;9.10;7.05;;;;;;;25.59;50.51;97543.34;4999039;28;20042;-66
2022/07/22 10:15:58;;;;;;;11.88;7.25;;;;;;;25.63;50.54;97549.81;4998586;28;20060;-66
2022/07/22 10:18:29;;;;;;;9.05;7.35;;;;;;;25.60;50.03;97549.69;4995370;28;20045;-66
2022/07/22 10:21:08;;;;;;;9.45;6.80;;;;;;;25.62;49.84;97541.81;4979554;28;20054;-66
2022/07/22 10:23:36;;;;;;;12.73;7.20;;;;;;;25.74;50.06;97527.13;4973782;28;20066;-67
2022/07/22 10:26:04;;;;;;;9.02;6.55;;;;;;;25.92;49.78;97531.28;4982252;28;20473;-67
2022/07/22 10:28:36;;;;;;;8.55;6.90;;;;;;;25.83;49.45;97525.03;4985016;28;20537;-66
2022/07/22 10:31:23;;;;;;;10.55;6.63;;;;;;;25.87;49.72;97516.84;4986394;28;20404;-66
2022/07/22 10:33:53;;;;;;;10.90;6.25;;;;;;;25.82;49.63;97515.91;4986504;28;20413;-66
2022/07/22 10:36:42;;;;;;;10.27;6.72;;;;;;;25.98;49.65;97523.50;4985256;28;20052;-66
2022/07/22 10:39:12;;;;;;;9.70;6.75;;;;;;;26.21;48.54;97514.66;4985345;28;20046;-66
2022/07/22 10:41:43;;;;;;;8.85;6.10;;;;;;;26.22;48.25;97514.31;4986265;28;20433;-66
2022/07/22 10:44:47;;;;;;;7.72;5.97;;;;;;;26.42;47.29;97522.00;4985702;28;20046;-67
2022/07/22 10:47:56;;;;;;;9.82;6.50;;;;;;;26.34;47.30;97510.69;4985463;28;20501;-66
2022/07/22 10:50:37;;;;;;;8.45;6.30;;;;;;;26.50;46.93;97509.94;4986396;28;20501;-66
2022/07/22 10:53:08;;;;;;;11.13;6.57;;;;;;;26.43;46.71;97512.50;4986085;28;20050;-66
2022/07/22 10:55:36;;;;;;;8.70;6.30;;;;;;;26.47;46.50;97505.88;4986266;28;20053;-66
2022/07/22 10:58:34;;;;;;;8.98;6.38;;;;;;;26.52;46.85;97504.81;4986359;28;20053;-66
2022/07/22 11:01:03;;;;;;;9.40;6.15;;;;;;;26.66;46.81;97507.19;4972629;28;20497;-66
2022/07/22 11:03:32;;;;;;;10.95;5.78;;;;;;;26.86;46.30;97502.53;4986160;28;20049;-66
2022/07/22 11:06:19;;;;;;;9.70;6.55;;;;;;;27.08;45.18;97494.78;4984483;28;20310;-66
2022/07/22 11:08:49;;;;;;;7.80;6.20;;;;;;;27.07;45.20;97489.56;4985435;28;20073;-66
2022/07/22 11:11:17;;;;;;;10.23;6.15;;;;;;;27.08;45.42;97489.22;4984111;28;20042;-66
2022/07/22 11:13:44;;;;;;;9.20;6.28;;;;;;;27.24;45.40;97480.84;4984187;28;20501;-66
2022/07/22 11:16:15;;;;;;;7.25;6.47;;;;;;;27.20;45.22;97487.50;4983524;28;20046;-67
2022/07/22 11:18:49;;;;;;;;;;;;;;;27.19;44.42;97485.91;4984106;28;20043;-66
2022/07/22 11:21:18;;;;;;;10.80;6.90;;;;;;;27.36;44.16;97490.25;4983969;28;20082;-67
2022/07/22 11:23:48;;;;;;;7.53;6.00;;;;;;;27.44;44.04;97494.00;4971903;28;20054;-67
2022/07/22 11:26:17;;;;;;;8.43;6.13;;;;;;;27.32;44.24;97481.84;4985368;28;20472;-67
2022/07/22 11:28:45;;;;;;;7.88;5.80;;;;;;;27.33;44.29;97477.91;4985380;28;20531;-66
2022/07/22 11:31:17;;;;;;;8.13;5.93;;;;;;;27.35;44.53;97469.97;4985827;28;20050;-67
2022/07/22 11:33:47;;;;;;;8.57;6.25;;;;;;;27.48;44.71;97475.44;4985415;28;20050;-66
2022/07/22 11:36:14;;;;;;;10.75;6.47;;;;;;;27.78;43.57;97469.34;4985309;28;20034;-66
2022/07/22 11:38:43;;;;;;;8.57;6.55;;;;;;;27.83;43.40;97462.72;4985568;28;20049;-66
2022/07/22 11:41:18;;;;;;;7.90;5.70;;;;;;;28.29;42.85;97451.75;4984430;28;20042;-66
2022/07/22 11:43:47;;;;;;;7.57;5.83;;;;;;;28.24;42.39;97448.41;4985694;28;20317;-66
2022/07/22 11:46:17;;;;;;;9.75;5.60;;;;;;;28.39;42.01;97444.78;4984527;28;20046;-66